• Join FlightAware (Why Join?)
  • Login
  • US Flag 
12:11PM EDT


 

Airport Tracker/Info


-or-


 

Live Flight TrackerFlight Track Log ✈ UAL582 ✈ 24-Apr-2013 ✈ CYYZ - KORD

Flight Track Log - Related Links

Times and Time Zones

All times are in EDT time to prevent confusion due to time zone crossing. See the UAL582 flight status page for this flight to view local times or setup timezone preferences in your user account.

Time Position Orientation Groundspeed Altitude Reporting Facility
EDT Latitude Longitude Course Direction KTS MPH feet Rate Location/Type
05:44PM 43.6833 -79.6333 324° Northwest 130 150 2,200  Level Toronto Center
05:45PM 43.7333 -79.6833 324° Northwest 200 230 3,900 1,800 Climbing Toronto Center
05:46PM 43.7667 -79.7500 305° West 260 299 5,800 3,000 Climbing Toronto Center
05:47PM 43.7667 -79.8333 270° West 250 288 9,900 3,000 Climbing Toronto Center
05:48PM 43.7500 -79.9333 257° West 260 299 11,800 2,160 Climbing Toronto Center
05:49PM 43.7500 -80.0667 270° West 310 357 14,300 2,280 Climbing Toronto Center
05:50PM 43.7500 -80.1833 270° West 330 380 16,400 2,460 Climbing Toronto Center
05:51PM 43.7500 -80.3333 270° West 350 403 19,300 2,640 Climbing Toronto Center
05:52PM 43.7500 -80.4667 270° West 340 391 21,700 2,340 Climbing Toronto Center
05:53PM 43.7333 -80.5833 259° West 340 391 24,000 1,920 Climbing Toronto Center
05:54PM 43.7333 -80.7167 270° West 340 391 25,600 1,200 Climbing Toronto Center
05:55PM 43.7167 -80.8500 260° West 360 414 26,400 780 Climbing Toronto Center
05:56PM 43.7000 -81.0000 261° West 370 426 27,200 960 Climbing Toronto Center
05:57PM 43.6667 -81.1333 251° West 380 437 28,400 1,200 Climbing Toronto Center
05:58PM 43.6333 -81.2667 251° West 390 449 29,600 1,620 Climbing Toronto Center
05:59PM 43.5833 -81.4000 243° Southwest 370 426 31,700 1,620 Climbing Toronto Center
06:00PM 43.5667 -81.5500 261° West 370 426 32,900 1,200 Climbing Toronto Center
06:01PM 43.5333 -81.6833 251° West 370 426 34,200 1,200 Climbing Toronto Center
06:02PM 43.5000 -81.8000 249° West 370 426 35,300 780 Climbing Toronto Center
06:03PM 43.4500 -81.9333 243° Southwest 370 426 35,800 300 Climbing Toronto Center
06:04PM 43.4167 -82.0667 251° West 380 437 36,000 60 Climbing Toronto Center
06:06PM 43.3839 -82.2514 256° West 385 443 36,000  Level Cleveland Center
06:06PM 43.3333 -82.3667 239° Southwest 390 449 36,000  Level Toronto Center
06:07PM 43.3000 -82.5000 251° West 390 449 36,000  Level Toronto Center
06:08PM 43.2667 -82.6333 251° West 390 449 36,000  Level Toronto Center
06:09PM 43.2686 -82.6703 274° West 385 443 36,000  Level Cleveland Center
06:10PM 43.2306 -82.8086 249° West 390 449 36,000  Level Cleveland Center
06:11PM 43.1925 -82.9494 250° West 390 449 36,000  Level Cleveland Center
06:12PM 43.1519 -83.0875 248° West 390 449 36,000  Level Cleveland Center
06:13PM 43.1136 -83.2253 249° West 390 449 36,000  Level Cleveland Center
06:14PM 43.0750 -83.3600 249° West 390 449 36,000 -360 Level Cleveland Center
06:15PM 43.0361 -83.4975 249° West 390 449 35,300 -960 Descending Cleveland Center
06:16PM 42.9992 -83.6350 250° West 384 442 34,100 -1,200 Descending Cleveland Center
06:17PM 42.9622 -83.7722 250° West 384 442 32,900 -1,080 Descending Cleveland Center
06:18PM 42.9475 -83.9189 262° West 389 448 32,000 -480 Descending Cleveland Center
06:19PM 42.9322 -84.0856 263° West 407 468 32,000  Level Cleveland Center
06:20PM 42.9172 -84.2350 262° West 407 468 32,000  Level Cleveland Center
06:21PM 42.8833 -84.4833 260° West 400 460 32,000  Level Toronto Center
06:22PM 42.8914 -84.5131 290° West 398 458 32,000  Level Chicago Center
06:23PM 42.8731 -84.6908 262° West 395 455 32,000  Level Chicago Center
06:24PM 42.8575 -84.8403 262° West 398 458 32,000  Level Chicago Center
06:25PM 42.8417 -84.9889 262° West 397 457 32,000  Level Chicago Center
06:26PM 42.8261 -85.1378 262° West 398 458 32,000  Level Chicago Center
06:27PM 42.8097 -85.2878 262° West 399 459 32,000  Level Chicago Center
06:28PM 42.7931 -85.4400 262° West 405 466 32,000 -1,140 Level Chicago Center
06:29PM 42.7653 -85.6186 258° West 400 460 29,700 -2,280 Descending Chicago Center
06:30PM 42.7383 -85.7650 256° West 398 458 27,400 -2,520 Descending Chicago Center
06:31PM 42.7122 -85.9086 256° West 391 450 24,600 -2,580 Descending Chicago Center
06:32PM 42.6864 -86.0500 256° West 385 443 22,100 -2,160 Descending Chicago Center
06:33PM 42.6619 -86.1847 256° West 370 426 20,100 -1,020 Descending Chicago Center
06:34PM 42.6381 -86.3144 256° West 355 409 20,000 -600 Descending Chicago Center
06:35PM 42.6131 -86.4408 255° West 348 400 18,900 -1,500 Descending Chicago Center
06:36PM 42.5847 -86.5933 256° West 347 399 16,900 -1,860 Descending Chicago Center
06:37PM 42.5628 -86.7158 256° West 338 389 15,100 -1,800 Descending Chicago Center
06:38PM 42.5317 -86.8331 250° West 334 384 13,300 -1,620 Descending Chicago Center
06:39PM 42.5003 -86.9475 250° West 328 377 11,800 -1,500 Descending Chicago Center
06:40PM 42.4692 -87.0581 249° West 317 365 10,300 -1,260 Descending Chicago Center
06:41PM 42.4153 -87.1292 224° Southwest 288 331 9,300 -1,380 Descending Chicago Center
06:43PM 42.3372 -87.1961 212° Southwest 280 322 7,500 -1,500 Descending Chicago Center
06:44PM 42.2717 -87.2533 213° Southwest 269 310 6,200 -1,260 Descending Chicago Center
06:45PM 42.2125 -87.3042 212° Southwest 256 295 5,000 -1,020 Descending Chicago Center
06:46PM 42.1547 -87.3558 214° Southwest 252 290 4,100 -660 Descending Chicago Center
06:46PM 42.1167 -87.3833 208° Southwest 251 289 4,000 -120 Descending Chicago TRACON
06:47PM 42.0667 -87.4333 217° Southwest 250 288 4,000  Level Chicago TRACON
06:48PM 42.0167 -87.5167 231° Southwest 245 282 4,000  Level Chicago TRACON
06:49PM 42.0167 -87.6000 270° West 243 280 4,000  Level Chicago TRACON